Vano — SBNM — position and weather

sailwx.info

Track history (hours):
 
Tides and Currents Weather Stations Pressure Air Temp Water Temp Dewpoint Dewpoint Depression Visibility Wind Speed Wind Dir Waves Ship Positions

Vano

Last reported at 2014-Jul-25 15:19 UTC. Time now 2014-Jul-25 20:34 UTC.
Position N 59°23' E 018°20'.

Length 38 m; draft 1.8 m.

Type: Passenger vessel. MMSI: 265520400.

Date/timePositionNaut miles runAvg speedWind from/ knotsBaromVisibWave heightAir tempDewpointWater temp
2014-Jul-25 15:19N 59°23' E 018°20'810.8
2014-Jul-25 14:33N 59°19' E 018°05'1 0.5
2014-Jul-25 13:33N 59°19' E 018°06'3 0.5
2014-Jul-25 06:25N 59°20' E 018°12'4 0.3
2014-Jul-24 18:24N 59°20' E 018°05'9 1.1
2014-Jul-24 10:24N 59°23' E 018°20'9 9.8
2014-Jul-24 09:32N 59°20' E 018°05'3 3.0
2014-Jul-24 08:33N 59°19' E 018°10'1 0.1
2014-Jul-23 15:29N 59°20' E 018°13'4 3.5
2014-Jul-23 14:18N 59°20' E 018°04'7 8.5
2014-Jul-23 13:28N 59°23' E 018°17'1 0.2
2014-Jul-23 07:19N 59°23' E 018°20'811.1
2014-Jul-23 06:33N 59°19' E 018°05'0 0.3
2014-Jul-23 05:30N 59°20' E 018°05'2 0.2
2014-Jul-22 20:33N 59°19' E 018°08'5 0.9
2014-Jul-22 15:08N 59°22' E 018°16'610.1
2014-Jul-22 14:32N 59°20' E 018°05'0 0.2
2014-Jul-22 13:12N 59°20' E 018°05'0 0.0
2014-Jul-22 12:12N 59°20' E 018°05'0 0.0
2014-Jul-22 10:27N 59°20' E 018°05'0 0.0
2014-Jul-22 09:33N 59°20' E 018°05'0 0.0
2014-Jul-22 08:32N 59°20' E 018°05'0 0.0
2014-Jul-21 13:32N 59°20' E 018°05'0 0.0
2014-Jul-21 06:32N 59°20' E 018°05'0 0.0
2014-Jul-20 19:32N 59°20' E 018°05'1 0.2
2014-Jul-20 13:12N 59°19' E 018°07'1 1.3
2014-Jul-20 12:07N 59°20' E 018°04'1 0.3
2014-Jul-20 08:08N 59°19' E 018°06'1 0.0
2014-Jul-19 16:27N 59°19' E 018°05'0 0.0
2014-Jul-19 06:33N 59°19' E 018°05'0 0.3
2014-Jul-19 05:09N 59°20' E 018°05'0 0.0
2014-Jul-18 21:16N 59°20' E 018°05'0 0.0
2014-Jul-18 20:29N 59°20' E 018°05'0 0.0
2014-Jul-18 13:24N 59°20' E 018°05'1 0.2
2014-Jul-18 06:11N 59°19' E 018°07'2 0.1
2014-Jul-17 17:15N 59°20' E 018°04'0 0.1
2014-Jul-17 09:33N 59°19' E 018°05'1 0.0
2014-Jul-16 15:12N 59°19' E 018°06'1 1.0
2014-Jul-16 14:05N 59°20' E 018°05'0 0.0
2014-Jul-16 06:32N 59°20' E 018°05'0 0.2
2014-Jul-16 05:31N 59°20' E 018°05'0 0.0
2014-Jul-16 04:33N 59°20' E 018°05'0 0.0
2014-Jul-16 03:33N 59°20' E 018°05'0 0.0
2014-Jul-16 02:33N 59°20' E 018°05'0 0.0
2014-Jul-16 01:33N 59°20' E 018°05'0 0.0
2014-Jul-16 00:33N 59°20' E 018°05'0 0.0
2014-Jul-15 23:33N 59°20' E 018°05'0 0.0
2014-Jul-15 22:33N 59°20' E 018°05'0 0.0
2014-Jul-15 21:33N 59°20' E 018°05'0 0.1
2014-Jul-15 20:33N 59°20' E 018°05'  
Track history (hours):
 
Tides and Currents Weather Stations Pressure Air Temp Water Temp Dewpoint Dewpoint Depression Visibility Wind Speed Wind Dir Waves Ship Positions

Vano

Last reported at 2014-Jul-25 15:19 UTC. Time now 2014-Jul-25 20:34 UTC.
Position N 59°23' E 018°20'.

Length 38 m; draft 1.8 m.

Type: Passenger vessel. MMSI: 265520400.

Date/timePositionNaut miles runAvg speedWind from/ knotsBaromVisibWave heightAir tempDewpointWater temp
2014-Jul-25 15:19N 59°23' E 018°20'810.8
2014-Jul-25 14:33N 59°19' E 018°05'1 0.5
2014-Jul-25 13:33N 59°19' E 018°06'3 0.5
2014-Jul-25 06:25N 59°20' E 018°12'4 0.3
2014-Jul-24 18:24N 59°20' E 018°05'9 1.1
2014-Jul-24 10:24N 59°23' E 018°20'9 9.8
2014-Jul-24 09:32N 59°20' E 018°05'3 3.0
2014-Jul-24 08:33N 59°19' E 018°10'1 0.1
2014-Jul-23 15:29N 59°20' E 018°13'4 3.5
2014-Jul-23 14:18N 59°20' E 018°04'7 8.5
2014-Jul-23 13:28N 59°23' E 018°17'1 0.2
2014-Jul-23 07:19N 59°23' E 018°20'811.1
2014-Jul-23 06:33N 59°19' E 018°05'0 0.3
2014-Jul-23 05:30N 59°20' E 018°05'2 0.2
2014-Jul-22 20:33N 59°19' E 018°08'5 0.9
2014-Jul-22 15:08N 59°22' E 018°16'610.1
2014-Jul-22 14:32N 59°20' E 018°05'0 0.2
2014-Jul-22 13:12N 59°20' E 018°05'0 0.0
2014-Jul-22 12:12N 59°20' E 018°05'0 0.0
2014-Jul-22 10:27N 59°20' E 018°05'0 0.0
2014-Jul-22 09:33N 59°20' E 018°05'0 0.0
2014-Jul-22 08:32N 59°20' E 018°05'0 0.0
2014-Jul-21 13:32N 59°20' E 018°05'0 0.0
2014-Jul-21 06:32N 59°20' E 018°05'0 0.0
2014-Jul-20 19:32N 59°20' E 018°05'1 0.2
2014-Jul-20 13:12N 59°19' E 018°07'1 1.3
2014-Jul-20 12:07N 59°20' E 018°04'1 0.3
2014-Jul-20 08:08N 59°19' E 018°06'1 0.0
2014-Jul-19 16:27N 59°19' E 018°05'0 0.0
2014-Jul-19 06:33N 59°19' E 018°05'0 0.3
2014-Jul-19 05:09N 59°20' E 018°05'0 0.0
2014-Jul-18 21:16N 59°20' E 018°05'0 0.0
2014-Jul-18 20:29N 59°20' E 018°05'0 0.0
2014-Jul-18 13:24N 59°20' E 018°05'1 0.2
2014-Jul-18 06:11N 59°19' E 018°07'2 0.1
2014-Jul-17 17:15N 59°20' E 018°04'0 0.1
2014-Jul-17 09:33N 59°19' E 018°05'1 0.0
2014-Jul-16 15:12N 59°19' E 018°06'1 1.0
2014-Jul-16 14:05N 59°20' E 018°05'0 0.0
2014-Jul-16 06:32N 59°20' E 018°05'0 0.2
2014-Jul-16 05:31N 59°20' E 018°05'0 0.0
2014-Jul-16 04:33N 59°20' E 018°05'0 0.0
2014-Jul-16 03:33N 59°20' E 018°05'0 0.0
2014-Jul-16 02:33N 59°20' E 018°05'0 0.0
2014-Jul-16 01:33N 59°20' E 018°05'0 0.0
2014-Jul-16 00:33N 59°20' E 018°05'0 0.0
2014-Jul-15 23:33N 59°20' E 018°05'0 0.0
2014-Jul-15 22:33N 59°20' E 018°05'0 0.0
2014-Jul-15 21:33N 59°20' E 018°05'0 0.1
2014-Jul-15 20:33N 59°20' E 018°05'  

Dump ship's entire track history